Time;durP1;ratioP1;P1;durP2;ratioP2;P2;SDS_P1;SDS_P2;PMS_P1;PMS_P2;Temp;Humidity;BMP_temperature;BMP_pressure;BME280_temperature;BME280_humidity;BME280_pressure;Samples;Min_cycle;Max_cycle;Signal;HPM_P1;HPM_P2
2023/05/23 00:03:42;;;;;;;9.90;7.70;;;;;;;14.02;90.16;99945.28;181226;1264;43106;-66
2023/05/23 00:07:45;;;;;;;10.70;7.40;;;;;;;14.00;90.20;99939.98;181250;1264;43661;-66
2023/05/23 00:11:47;;;;;;;22.70;7.40;;;;;;;13.96;90.15;99934.69;181153;1264;58069;-66
2023/05/23 00:16:16;;;;;;;11.20;7.70;;;;;;;13.89;91.10;99933.63;181282;1264;43487;-64
2023/05/23 00:20:20;;;;;;;11.80;7.90;;;;;;;13.74;91.54;99932.29;181275;1262;46018;-66
2023/05/23 00:24:23;;;;;;;10.50;6.10;;;;;;;13.64;91.21;99933.80;181237;1263;43131;-66
2023/05/23 00:28:26;;;;;;;11.00;6.60;;;;;;;13.49;92.80;99929.17;181191;1264;43024;-66
2023/05/23 00:32:29;;;;;;;10.60;7.90;;;;;;;13.38;93.15;99933.09;181227;1264;58233;-65
2023/05/23 00:36:58;;;;;;;11.80;8.80;;;;;;;13.35;93.38;99933.55;181242;1264;43782;-66
2023/05/23 00:41:01;;;;;;;9.90;6.80;;;;;;;13.30;93.75;99937.99;181234;1263;43094;-66
2023/05/23 00:45:04;;;;;;;11.60;8.50;;;;;;;13.30;93.58;99934.65;181145;1263;43437;-66
2023/05/23 00:49:08;;;;;;;11.70;8.10;;;;;;;13.26;94.22;99936.55;181232;1264;42974;-66
2023/05/23 00:53:13;;;;;;;10.30;7.80;;;;;;;13.15;95.51;99930.19;181182;1264;59974;-65
2023/05/23 00:57:16;;;;;;;10.00;7.60;;;;;;;13.04;96.71;99933.45;181164;1264;43089;-66
2023/05/23 01:01:20;;;;;;;11.30;7.70;;;;;;;12.99;97.00;99935.70;181178;1264;42973;-64
2023/05/23 01:05:23;;;;;;;10.40;8.50;;;;;;;12.96;97.57;99940.52;181163;1264;43728;-65
2023/05/23 01:09:28;;;;;;;11.40;9.00;;;;;;;13.00;96.66;99938.79;181255;1264;43808;-66
2023/05/23 01:13:42;;;;;;;11.60;6.50;;;;;;;13.05;96.21;99937.04;181143;1264;58689;-66
2023/05/23 01:18:08;;;;;;;9.30;7.10;;;;;;;13.12;95.64;99940.86;181177;1262;43090;-67
2023/05/23 01:22:22;;;;;;;14.30;8.00;;;;;;;13.14;94.99;99936.86;181251;1264;43072;-66
2023/05/23 01:27:04;;;;;;;12.30;8.30;;;;;;;13.18;95.64;99928.80;181089;1264;43765;-65
2023/05/23 01:31:09;;;;;;;8.40;7.60;;;;;;;13.26;95.50;99930.48;181198;1264;43835;-66
2023/05/23 01:35:18;;;;;;;9.70;8.70;;;;;;;13.29;95.45;99919.26;181187;1264;58185;-65
2023/05/23 01:39:22;;;;;;;15.20;7.50;;;;;;;13.32;94.97;99914.99;181104;1264;43715;-67
2023/05/23 01:43:25;;;;;;;13.90;8.10;;;;;;;13.33;94.39;99908.66;181287;1264;43007;-64
2023/05/23 01:47:28;;;;;;;10.40;8.40;;;;;;;13.34;93.84;99901.29;181124;1264;43862;-66
2023/05/23 01:51:37;;;;;;;12.50;8.10;;;;;;;13.32;93.38;99898.30;181187;1264;43471;-66
2023/05/23 01:55:41;;;;;;;10.40;7.70;;;;;;;13.17;94.09;99889.79;181103;1264;58161;-66
2023/05/23 01:59:44;;;;;;;15.50;9.40;;;;;;;13.03;94.91;99887.73;181225;1264;42973;-66
2023/05/23 02:03:50;;;;;;;13.20;9.80;;;;;;;12.96;95.61;99884.14;181212;1262;43162;-66
2023/05/23 02:07:52;;;;;;;10.50;8.00;;;;;;;12.96;96.07;99884.88;181206;1263;43168;-66
2023/05/23 02:11:55;;;;;;;13.00;8.10;;;;;;;12.98;96.59;99883.11;181166;1264;43198;-66
2023/05/23 02:15:58;;;;;;;14.80;9.30;;;;;;;12.98;96.54;99877.00;181173;1266;58032;-66
2023/05/23 02:20:01;;;;;;;9.00;7.20;;;;;;;13.00;96.06;99876.15;181186;1264;43118;-65
2023/05/23 02:24:04;;;;;;;16.20;9.10;;;;;;;13.01;95.80;99868.73;181244;1263;43041;-66
2023/05/23 02:28:07;;;;;;;12.00;8.90;;;;;;;12.99;96.03;99866.05;181281;1262;43133;-66
2023/05/23 02:32:09;;;;;;;14.30;8.60;;;;;;;12.93;96.37;99864.56;181238;1263;43607;-66
2023/05/23 02:36:13;;;;;;;12.90;9.60;;;;;;;12.88;96.26;99861.79;181134;1263;58249;-66
2023/05/23 02:40:16;;;;;;;10.00;8.50;;;;;;;12.84;96.78;99858.23;181231;1263;43052;-66
2023/05/23 02:44:18;;;;;;;15.50;10.50;;;;;;;12.80;96.80;99855.83;181229;1263;43098;-66
2023/05/23 02:48:21;;;;;;;11.60;10.10;;;;;;;12.82;96.78;99855.11;181262;1263;43580;-65
2023/05/23 02:52:25;;;;;;;13.70;9.40;;;;;;;12.83;96.84;99850.59;181243;1263;43693;-64
2023/05/23 02:56:28;;;;;;;12.50;10.10;;;;;;;12.83;96.74;99847.92;181279;1263;58267;-65
2023/05/23 03:00:31;;;;;;;13.50;9.50;;;;;;;12.86;96.74;99847.23;181248;1263;43136;-67
2023/05/23 03:04:34;;;;;;;9.60;8.50;;;;;;;12.88;97.11;99848.47;181165;1264;43442;-65
2023/05/23 03:14:24;;;;;;;18.50;10.60;;;;;;;12.88;97.61;99836.69;181167;1266;43314;-65
2023/05/23 03:18:27;;;;;;;14.40;9.80;;;;;;;12.87;98.07;99838.77;181126;1266;57566;-67
2023/05/23 03:22:29;;;;;;;10.10;7.80;;;;;;;12.90;97.86;99840.84;181045;1266;43423;-66
2023/05/23 03:26:32;;;;;;;12.50;9.60;;;;;;;12.83;99.22;99839.00;181080;1263;43129;-65
2023/05/23 03:30:35;;;;;;;10.80;8.40;;;;;;;12.77;99.68;99838.89;181239;1263;43103;-67
2023/05/23 03:34:39;;;;;;;14.20;9.80;;;;;;;12.80;99.61;99833.27;181237;1264;43705;-66
2023/05/23 03:38:42;;;;;;;16.30;10.50;;;;;;;12.89;99.31;99825.95;181088;1264;58298;-66
2023/05/23 03:48:12;;;;;;;11.00;8.80;;;;;;;13.01;99.01;99829.77;181160;1260;86489;-64
2023/05/23 03:52:57;;;;;;;13.10;8.80;;;;;;;13.11;98.38;99825.58;181088;1265;86672;-64
2023/05/23 03:57:01;;;;;;;12.80;9.30;;;;;;;13.17;97.92;99820.73;181264;1263;43130;-65
2023/05/23 04:01:06;;;;;;;13.20;9.10;;;;;;;13.31;97.59;99823.01;181160;1264;58556;-64
2023/05/23 04:05:10;;;;;;;12.10;10.50;;;;;;;13.48;97.15;99820.25;181158;1265;43410;-65
2023/05/23 04:09:15;;;;;;;12.80;9.30;;;;;;;13.65;96.26;99820.02;181187;1265;43489;-65
2023/05/23 04:13:19;;;;;;;11.20;8.90;;;;;;;13.79;95.13;99814.80;181047;1265;43752;-64
2023/05/23 04:17:24;;;;;;;12.60;10.00;;;;;;;13.96;94.26;99812.80;180793;1263;81209;-90
2023/05/23 04:21:28;;;;;;;13.00;10.30;;;;;;;14.18;93.85;99817.06;180570;1264;58308;-90
2023/05/23 04:25:31;;;;;;;15.60;10.80;;;;;;;14.43;93.65;99818.29;180760;1264;43874;-89
2023/05/23 04:29:35;;;;;;;17.40;10.10;;;;;;;14.72;93.32;99813.73;180519;1264;43812;-88
2023/05/23 04:33:38;;;;;;;17.20;9.50;;;;;;;15.04;93.18;99810.43;180461;1264;43910;-89
2023/05/23 04:37:41;;;;;;;16.80;11.30;;;;;;;15.47;92.14;99800.05;180491;1265;43775;-88
2023/05/23 04:41:45;;;;;;;12.20;10.90;;;;;;;15.76;89.23;99792.40;180614;1264;58884;-89
2023/05/23 04:45:53;;;;;;;13.50;11.30;;;;;;;15.82;89.74;99788.09;180463;1264;43798;-90
2023/05/23 04:59:10;;;;;;;32.40;24.50;;;;;;;15.99;90.27;99795.04;180972;1267;43072;-61
2023/05/23 05:03:18;;;;;;;12.80;9.60;;;;;;;16.07;92.27;99808.45;180868;1268;43836;-61
2023/05/23 05:07:22;;;;;;;12.90;10.80;;;;;;;16.28;93.53;99822.68;180949;1268;43729;-62
2023/05/23 05:11:28;;;;;;;31.30;16.70;;;;;;;16.52;92.02;99816.30;180986;1267;58660;-62
2023/05/23 05:15:37;;;;;;;;;;;;;;;16.58;87.17;99811.42;180884;1268;43397;-61
2023/05/23 05:19:40;;;;;;;21.50;16.50;;;;;;;16.51;86.83;99811.14;180656;1258;83725;-87
2023/05/23 05:23:44;;;;;;;20.10;12.90;;;;;;;16.60;87.48;99811.05;180729;1264;44328;-87
2023/05/23 05:27:47;;;;;;;15.10;10.80;;;;;;;16.69;87.33;99813.27;180589;1264;43841;-88
2023/05/23 05:31:52;;;;;;;17.60;10.70;;;;;;;16.83;86.52;99819.16;180517;1264;57941;-87
2023/05/23 05:35:55;;;;;;;16.50;11.40;;;;;;;16.79;87.43;99826.48;180735;1264;43871;-87
2023/05/23 05:40:04;;;;;;;13.70;10.80;;;;;;;16.77;90.21;99835.75;180630;1264;44174;-87
2023/05/23 05:44:09;;;;;;;15.60;11.90;;;;;;;16.96;91.41;99837.95;180719;1264;44068;-87
2023/05/23 05:48:12;;;;;;;23.20;11.10;;;;;;;17.20;92.15;99837.42;180513;1264;43857;-87
2023/05/23 05:52:15;;;;;;;22.20;12.60;;;;;;;17.54;89.87;99831.88;180621;1263;58530;-87
2023/05/23 05:56:19;;;;;;;15.00;9.50;;;;;;;18.14;85.77;99826.80;180731;1264;43830;-87
2023/05/23 06:00:22;;;;;;;18.30;12.60;;;;;;;18.81;83.74;99822.20;180565;1265;43785;-87
2023/05/23 06:04:26;;;;;;;16.00;10.30;;;;;;;19.49;77.39;99815.28;180668;1263;43798;-87
2023/05/23 06:08:29;;;;;;;12.90;10.70;;;;;;;19.88;75.90;99808.24;180411;1265;44153;-87
2023/05/23 06:12:33;;;;;;;16.30;11.90;;;;;;;20.34;74.23;99799.17;180382;1265;59376;-87
2023/05/23 06:16:36;;;;;;;46.20;38.50;;;;;;;20.60;72.91;99797.35;180657;1264;43848;-87
2023/05/23 06:20:39;;;;;;;17.40;13.40;;;;;;;20.55;72.19;99793.46;180649;1263;44496;-87
2023/05/23 06:24:43;;;;;;;28.00;18.60;;;;;;;20.40;71.38;99787.20;180617;1263;43897;-88
2023/05/23 06:28:46;;;;;;;13.10;9.70;;;;;;;20.33;72.91;99780.69;180676;1264;43796;-87
2023/05/23 06:32:50;;;;;;;10.20;9.10;;;;;;;20.11;73.34;99781.10;180760;1263;59659;-87
2023/05/23 06:36:53;;;;;;;16.40;11.00;;;;;;;20.08;73.93;99785.98;180486;1264;43871;-87
2023/05/23 06:40:57;;;;;;;17.40;11.30;;;;;;;20.18;74.28;99780.21;180705;1263;43630;-87
2023/05/23 06:45:00;;;;;;;15.00;10.10;;;;;;;20.14;75.87;99775.96;180744;1264;43883;-87
2023/05/23 06:49:03;;;;;;;16.30;11.70;;;;;;;20.06;75.28;99764.05;180388;1265;43781;-87
2023/05/23 06:53:17;;;;;;;13.20;10.10;;;;;;;19.74;76.06;99746.92;180711;1264;58092;-87
2023/05/23 06:57:21;;;;;;;15.90;11.40;;;;;;;19.39;77.95;99745.43;180733;1264;44065;-87
2023/05/23 07:01:25;;;;;;;20.40;10.90;;;;;;;19.22;81.12;99747.30;180649;1264;44087;-87
2023/05/23 07:05:28;;;;;;;16.20;11.70;;;;;;;19.14;82.77;99748.48;180661;1264;44331;-87
2023/05/23 07:09:32;;;;;;;17.10;10.20;;;;;;;19.14;82.03;99760.02;180513;1264;43915;-87
2023/05/23 07:13:37;;;;;;;15.40;10.40;;;;;;;19.19;85.72;99777.48;180718;1263;58346;-87
2023/05/23 07:17:41;;;;;;;17.80;9.50;;;;;;;19.25;86.31;99785.20;180706;1264;43801;-87
2023/05/23 07:21:44;;;;;;;12.80;8.60;;;;;;;19.31;83.95;99784.70;180566;1264;43798;-87
2023/05/23 07:25:47;;;;;;;13.30;9.50;;;;;;;19.20;86.35;99789.52;180658;1264;44008;-86
2023/05/23 07:30:06;;;;;;;11.80;10.20;;;;;;;19.20;87.52;99781.75;180781;1264;43840;-87
2023/05/23 07:34:09;;;;;;;16.10;10.90;;;;;;;19.21;87.41;99778.15;180599;1264;59443;-87
2023/05/23 07:38:13;;;;;;;18.20;10.70;;;;;;;19.12;86.92;99772.77;180596;1265;43745;-87
2023/05/23 07:42:16;;;;;;;18.00;11.20;;;;;;;19.16;87.47;99760.94;180681;1263;43890;-87
2023/05/23 07:46:21;;;;;;;16.10;11.00;;;;;;;19.23;88.04;99755.85;180658;1263;43691;-87
2023/05/23 07:50:26;;;;;;;12.60;9.30;;;;;;;19.21;87.64;99754.51;180726;1264;44094;-87
2023/05/23 07:54:29;;;;;;;12.70;9.90;;;;;;;19.28;90.60;99751.95;180580;1264;59579;-87
2023/05/23 07:58:33;;;;;;;13.50;10.90;;;;;;;19.35;91.23;99745.61;180646;1264;43705;-88
2023/05/23 08:02:36;;;;;;;13.80;11.90;;;;;;;19.46;88.98;99758.42;180673;1263;43738;-88
2023/05/23 08:06:39;;;;;;;27.10;21.40;;;;;;;19.56;88.55;99770.45;180569;1264;44289;-87
2023/05/23 08:10:58;;;;;;;15.00;11.00;;;;;;;19.64;88.82;99781.33;180471;1263;43986;-87
2023/05/23 08:15:01;;;;;;;13.10;8.70;;;;;;;19.63;89.38;99782.72;180440;1264;59471;-87
2023/05/23 08:19:04;;;;;;;16.20;10.60;;;;;;;19.48;90.30;99789.77;180496;1264;43781;-87
2023/05/23 08:23:07;;;;;;;14.60;10.80;;;;;;;19.42;90.05;99798.43;180663;1264;43939;-87
2023/05/23 08:27:11;;;;;;;18.00;10.50;;;;;;;19.31;91.84;99804.45;180636;1263;44036;-87
2023/05/23 08:31:14;;;;;;;12.70;9.90;;;;;;;19.11;91.18;99813.36;180590;1264;43837;-87
2023/05/23 08:35:18;;;;;;;20.40;11.90;;;;;;;18.97;94.16;99819.64;180683;1264;58624;-87
2023/05/23 08:39:22;;;;;;;11.80;10.60;;;;;;;18.86;95.06;99820.86;180673;1264;44175;-87
2023/05/23 08:43:25;;;;;;;15.10;11.40;;;;;;;18.72;94.88;99821.00;180466;1264;44248;-87
2023/05/23 08:47:33;;;;;;;13.30;9.90;;;;;;;18.65;96.72;99821.13;180697;1264;43920;-87
2023/05/23 08:51:41;;;;;;;14.10;11.30;;;;;;;18.63;96.85;99819.65;180711;1264;43872;-87
2023/05/23 08:55:46;;;;;;;16.40;10.70;;;;;;;18.56;99.27;99817.67;180739;1264;57931;-87
2023/05/23 08:59:51;;;;;;;13.10;9.90;;;;;;;18.47;100.00;99819.95;180521;1263;43882;-87
2023/05/23 09:03:55;;;;;;;16.30;11.00;;;;;;;18.47;100.00;99820.84;180849;1265;44077;-87
2023/05/23 09:07:58;;;;;;;13.00;10.30;;;;;;;18.55;100.00;99825.16;180715;1264;43986;-87
2023/05/23 09:12:02;;;;;;;20.30;10.90;;;;;;;18.66;100.00;99827.84;180695;1265;43802;-87
2023/05/23 09:16:09;;;;;;;15.40;9.10;;;;;;;18.83;100.00;99827.73;180503;1264;59669;-88
2023/05/23 09:20:14;;;;;;;10.70;8.80;;;;;;;19.04;100.00;99818.14;180654;1264;43830;-87
2023/05/23 09:24:18;;;;;;;8.90;7.00;;;;;;;19.19;100.00;99815.83;180680;1263;43857;-87
2023/05/23 09:28:22;;;;;;;8.70;7.80;;;;;;;19.40;100.00;99808.88;180657;1263;43993;-88
2023/05/23 09:32:26;;;;;;;10.80;7.40;;;;;;;19.68;100.00;99803.66;180613;1264;44130;-87
2023/05/23 09:36:32;;;;;;;10.40;7.00;;;;;;;19.94;99.94;99797.52;180682;1264;59214;-87
2023/05/23 09:40:35;;;;;;;10.90;7.30;;;;;;;20.14;97.21;99801.88;180734;1264;43872;-87
2023/05/23 09:44:42;;;;;;;7.00;5.30;;;;;;;20.48;98.42;99801.64;180701;1263;44392;-87
2023/05/23 09:48:47;;;;;;;7.40;6.10;;;;;;;20.74;95.06;99803.13;180492;1264;43735;-87
2023/05/23 09:52:52;;;;;;;10.30;6.00;;;;;;;21.03;88.41;99798.45;180633;1264;43935;-87
2023/05/23 09:56:59;;;;;;;8.40;5.00;;;;;;;21.30;88.12;99800.36;180815;1263;58374;-88
2023/05/23 10:01:08;;;;;;;8.00;5.80;;;;;;;21.50;83.88;99795.58;180537;1264;44114;-87
2023/05/23 10:05:35;;;;;;;9.50;6.70;;;;;;;21.65;83.65;99791.15;180719;1264;43210;-86
2023/05/23 10:09:38;;;;;;;7.10;5.00;;;;;;;21.75;81.08;99789.44;180652;1265;43924;-87
2023/05/23 10:13:48;;;;;;;14.20;7.90;;;;;;;21.90;81.25;99787.80;180860;1263;43805;-87
2023/05/23 10:18:14;;;;;;;8.10;6.80;;;;;;;21.95;81.72;99785.47;180517;1263;60780;-87
2023/05/23 10:22:19;;;;;;;8.40;6.70;;;;;;;21.98;78.35;99788.57;180616;1265;43876;-87
2023/05/23 10:26:23;;;;;;;10.80;6.50;;;;;;;22.27;78.55;99783.87;180643;1265;43885;-87
2023/05/23 10:30:27;;;;;;;9.20;6.60;;;;;;;22.49;78.60;99782.71;180640;1264;43851;-86
2023/05/23 10:34:54;;;;;;;6.50;5.60;;;;;;;22.71;76.58;99777.67;180625;1265;44101;-87
2023/05/23 10:39:04;;;;;;;6.60;5.50;;;;;;;22.95;75.36;99784.64;180813;1265;59545;-86
2023/05/23 10:43:33;;;;;;;8.40;5.70;;;;;;;23.09;75.91;99782.28;180493;1264;43718;-87
2023/05/23 10:47:38;;;;;;;12.40;6.20;;;;;;;23.20;75.59;99780.52;180709;1264;44095;-87
2023/05/23 10:51:41;;;;;;;8.60;6.10;;;;;;;23.19;73.96;99782.49;180599;1264;44325;-86
2023/05/23 10:55:48;;;;;;;12.00;6.50;;;;;;;23.25;74.00;99785.91;180686;1264;44021;-87
2023/05/23 10:59:52;;;;;;;5.80;4.70;;;;;;;23.15;76.64;99792.21;180650;1264;59364;-86
2023/05/23 11:03:55;;;;;;;6.70;6.00;;;;;;;23.06;78.52;99786.14;180613;1264;45830;-86
2023/05/23 11:08:13;;;;;;;15.80;5.30;;;;;;;23.21;79.17;99783.56;180668;1264;43966;-87
2023/05/23 11:12:36;;;;;;;10.10;6.40;;;;;;;23.39;75.39;99775.20;180725;1264;44048;-86
2023/05/23 11:16:41;;;;;;;5.90;5.10;;;;;;;23.41;74.13;99776.45;180675;1264;44043;-86
2023/05/23 11:20:46;;;;;;;8.00;6.40;;;;;;;23.40;74.84;99780.17;180698;1263;59427;-87
2023/05/23 11:24:53;;;;;;;8.00;5.50;;;;;;;23.39;74.42;99779.09;180693;1265;44092;-86
2023/05/23 11:28:58;;;;;;;6.90;5.50;;;;;;;23.51;77.04;99781.81;180488;1264;44632;-87
2023/05/23 11:33:10;;;;;;;6.00;5.30;;;;;;;23.65;74.61;99773.91;180643;1264;44186;-86
2023/05/23 11:37:14;;;;;;;6.90;5.60;;;;;;;23.94;72.47;99760.25;180691;1264;43904;-86
2023/05/23 11:41:18;;;;;;;5.90;5.20;;;;;;;24.19;72.84;99755.17;180802;1264;59271;-86
2023/05/23 11:45:22;;;;;;;4.70;4.20;;;;;;;24.37;71.33;99754.80;180708;1264;43835;-86
2023/05/23 11:49:27;;;;;;;5.70;4.70;;;;;;;24.38;69.81;99758.39;180707;1264;43781;-87
2023/05/23 11:53:31;;;;;;;;;;;;;;;24.40;71.64;99761.66;180763;1264;43909;-87
2023/05/23 11:57:38;;;;;;;5.40;4.70;;;;;;;24.48;69.53;99759.00;180778;1264;43493;-86
2023/05/23 12:01:42;;;;;;;14.00;5.30;;;;;;;24.63;69.17;99756.91;180739;1264;59639;-86
2023/05/23 12:05:45;;;;;;;7.10;4.70;;;;;;;24.73;69.05;99757.36;180948;1264;43909;-86
2023/05/23 12:09:49;;;;;;;8.60;5.30;;;;;;;24.74;69.17;99756.39;180603;1264;43795;-87
2023/05/23 12:13:52;;;;;;;6.50;5.50;;;;;;;24.61;70.13;99758.16;180735;1264;45505;-87
2023/05/23 12:17:56;;;;;;;9.50;5.80;;;;;;;24.65;69.42;99751.83;180748;1264;43824;-87
2023/05/23 12:22:06;;;;;;;6.40;4.80;;;;;;;24.90;67.92;99746.98;180699;1264;58353;-87
2023/05/23 12:26:09;;;;;;;7.30;5.90;;;;;;;25.09;69.25;99738.52;180607;1263;43851;-87
2023/05/23 12:30:14;;;;;;;12.70;5.40;;;;;;;25.34;68.79;99731.42;180714;1264;43872;-87
2023/05/23 12:34:20;;;;;;;8.30;5.90;;;;;;;25.33;69.16;99735.92;180579;1264;44137;-87
2023/05/23 12:38:27;;;;;;;6.20;5.00;;;;;;;25.14;67.71;99744.63;180689;1264;43804;-87
2023/05/23 12:42:45;;;;;;;7.10;6.00;;;;;;;25.05;70.40;99731.79;180703;1264;57756;-87
2023/05/23 12:46:49;;;;;;;7.20;6.10;;;;;;;25.27;69.76;99726.86;180719;1264;43990;-87
2023/05/23 12:50:52;;;;;;;7.10;6.40;;;;;;;25.37;68.48;99719.73;180627;1264;43900;-87
2023/05/23 12:54:55;;;;;;;7.80;6.20;;;;;;;25.29;69.55;99717.30;180638;1265;44130;-87
2023/05/23 12:59:00;;;;;;;8.50;6.90;;;;;;;25.04;71.42;99716.20;180655;1264;43927;-87
2023/05/23 13:03:05;;;;;;;6.80;6.10;;;;;;;24.71;72.81;99721.12;180732;1264;59553;-87
2023/05/23 13:07:09;;;;;;;8.00;7.10;;;;;;;24.45;74.56;99723.27;180692;1264;44234;-87
2023/05/23 13:11:12;;;;;;;10.80;7.10;;;;;;;24.26;76.06;99726.31;180692;1263;44064;-87
2023/05/23 13:15:16;;;;;;;9.60;6.20;;;;;;;24.01;73.89;99731.80;180736;1263;43825;-87
2023/05/23 13:19:19;;;;;;;6.60;5.90;;;;;;;23.84;75.60;99741.73;180664;1265;43812;-87
2023/05/23 13:23:25;;;;;;;6.80;4.80;;;;;;;23.56;77.10;99756.65;180673;1265;58482;-89
2023/05/23 13:27:28;;;;;;;10.20;7.60;;;;;;;23.25;79.62;99773.98;180963;1264;44790;-88
2023/05/23 13:36:13;;;;;;;10.20;7.60;;;;;;;22.46;100.00;99759.66;143082;1289;44219;-70
2023/05/23 13:40:20;;;;;;;8.90;8.00;;;;;;;22.07;100.00;99757.77;180562;1265;43852;-88
2023/05/23 13:44:24;;;;;;;7.90;7.20;;;;;;;21.78;100.00;99748.87;180680;1264;58195;-88
2023/05/23 13:48:28;;;;;;;9.20;8.20;;;;;;;21.61;100.00;99753.85;180603;1267;44638;-89
2023/05/23 13:52:33;;;;;;;;;;;;;;;21.50;100.00;99749.64;180552;1265;44380;-90
2023/05/23 14:11:14;;;;;;;10.20;9.00;;;;;;;21.74;100.00;99748.41;180833;1265;44578;-90
2023/05/23 14:15:18;;;;;;;13.20;8.30;;;;;;;21.79;100.00;99749.20;180629;1268;43946;-90
2023/05/23 14:19:22;;;;;;;13.00;7.50;;;;;;;21.87;100.00;99751.27;180560;1265;43689;-90
2023/05/23 14:23:26;;;;;;;8.20;7.30;;;;;;;21.91;100.00;99749.91;180523;1267;43855;-89
2023/05/23 14:27:31;;;;;;;9.20;7.10;;;;;;;21.97;100.00;99746.21;180608;1267;59939;-90
2023/05/23 14:31:35;;;;;;;10.10;8.80;;;;;;;22.10;100.00;99752.05;180468;1266;43861;-90
2023/05/23 14:35:38;;;;;;;8.60;7.20;;;;;;;22.26;100.00;99750.89;180486;1266;43737;-90
2023/05/23 14:39:43;;;;;;;9.40;8.40;;;;;;;22.27;100.00;99759.76;180437;1266;43772;-90
2023/05/23 14:43:48;;;;;;;11.70;10.40;;;;;;;22.32;100.00;99757.98;180679;1265;43848;-91
2023/05/23 14:47:52;;;;;;;;;;;;;;;22.27;100.00;99757.05;180743;1265;59299;-90
2023/05/23 14:51:58;;;;;;;10.80;9.70;;;;;;;22.02;100.00;99766.95;180665;1265;43833;-91
2023/05/23 14:56:02;;;;;;;11.50;9.90;;;;;;;21.75;100.00;99769.27;180606;1267;43916;-89
2023/05/23 15:00:09;;;;;;;15.30;10.80;;;;;;;21.47;100.00;99765.10;180463;1266;44002;-90
2023/05/23 15:04:13;;;;;;;13.70;10.60;;;;;;;21.16;100.00;99767.29;180582;1268;44188;-90
2023/05/23 15:08:17;;;;;;;12.30;9.80;;;;;;;20.81;100.00;99780.39;180518;1266;60207;-90
2023/05/23 15:12:21;;;;;;;11.00;8.40;;;;;;;20.57;100.00;99776.19;180490;1267;44191;-90
2023/05/23 15:16:31;;;;;;;10.60;9.00;;;;;;;20.36;100.00;99758.84;180703;1266;44261;-90
2023/05/23 15:20:36;;;;;;;9.60;8.60;;;;;;;20.24;100.00;99752.77;180821;1267;43733;-90
2023/05/23 15:24:40;;;;;;;16.30;11.50;;;;;;;20.13;100.00;99741.42;180528;1265;43856;-87
2023/05/23 15:28:46;;;;;;;13.70;10.10;;;;;;;20.10;100.00;99753.06;180475;1265;59772;-89
2023/05/23 15:32:51;;;;;;;12.80;9.20;;;;;;;20.01;100.00;99766.10;180696;1265;44229;-87
2023/05/23 15:36:58;;;;;;;10.10;8.60;;;;;;;19.97;100.00;99765.63;180297;1266;44662;-87
2023/05/23 15:41:02;;;;;;;11.50;8.80;;;;;;;19.91;100.00;99763.01;180338;1265;43807;-87
2023/05/23 15:45:05;;;;;;;19.40;10.70;;;;;;;19.87;100.00;99763.44;180532;1265;43819;-86
2023/05/23 15:49:08;;;;;;;10.80;9.70;;;;;;;19.97;100.00;99767.29;180625;1266;58642;-88
2023/05/23 15:53:26;;;;;;;10.10;9.10;;;;;;;20.12;100.00;99779.35;180795;1266;43755;-87
2023/05/23 15:57:32;;;;;;;12.90;10.10;;;;;;;20.21;100.00;99779.60;180632;1266;44170;-87
2023/05/23 16:01:35;;;;;;;14.20;10.90;;;;;;;20.29;100.00;99786.53;180500;1266;43873;-87
2023/05/23 16:05:38;;;;;;;9.00;8.20;;;;;;;20.29;100.00;99793.84;180398;1265;43893;-87
2023/05/23 16:09:41;;;;;;;9.00;7.90;;;;;;;20.14;100.00;99788.27;180412;1265;57453;-88
2023/05/23 16:13:45;;;;;;;11.30;9.70;;;;;;;19.95;100.00;99777.73;180609;1265;44149;-86
2023/05/23 16:17:48;;;;;;;9.80;8.80;;;;;;;19.74;100.00;99769.02;180435;1267;43985;-88
2023/05/23 16:21:51;;;;;;;14.50;10.70;;;;;;;19.62;100.00;99774.09;180473;1267;44932;-88
2023/05/23 16:25:55;;;;;;;12.80;8.60;;;;;;;19.59;100.00;99772.12;180617;1265;43867;-89
2023/05/23 16:29:58;;;;;;;10.00;9.00;;;;;;;19.55;100.00;99776.36;180408;1266;59691;-89
2023/05/23 16:34:02;;;;;;;11.50;10.40;;;;;;;19.53;100.00;99779.46;180491;1266;43866;-88
2023/05/23 16:38:05;;;;;;;14.40;11.90;;;;;;;19.50;100.00;99787.63;180535;1267;44539;-89
2023/05/23 16:42:08;;;;;;;10.40;9.30;;;;;;;19.52;100.00;99792.83;180303;1265;43815;-88
2023/05/23 16:46:12;;;;;;;10.00;8.50;;;;;;;19.52;100.00;99800.66;180521;1267;43784;-88
2023/05/23 16:50:16;;;;;;;12.90;11.60;;;;;;;19.54;100.00;99809.17;180398;1267;59357;-88
2023/05/23 16:54:19;;;;;;;12.10;10.80;;;;;;;19.53;100.00;99811.63;180338;1264;259151;-88
2023/05/23 16:58:23;;;;;;;12.70;11.40;;;;;;;19.54;100.00;99810.60;180541;1264;43950;-89
2023/05/23 17:02:26;;;;;;;14.20;10.90;;;;;;;19.49;100.00;99817.73;180554;1267;43679;-87
2023/05/23 17:06:31;;;;;;;11.20;10.10;;;;;;;19.37;100.00;99825.08;180503;1264;44069;-88
2023/05/23 17:10:35;;;;;;;17.50;12.10;;;;;;;19.31;100.00;99831.75;180512;1267;59623;-89
2023/05/23 17:14:38;;;;;;;12.90;10.40;;;;;;;19.30;100.00;99842.08;180621;1265;43840;-88
2023/05/23 17:18:41;;;;;;;12.20;10.90;;;;;;;19.18;100.00;99845.18;180592;1265;43798;-88
2023/05/23 17:22:45;;;;;;;12.20;10.00;;;;;;;19.07;100.00;99848.08;180403;1267;44339;-88
2023/05/23 17:26:48;;;;;;;12.30;11.00;;;;;;;19.04;100.00;99842.31;180432;1265;44306;-89
2023/05/23 17:30:52;;;;;;;11.60;9.90;;;;;;;19.06;100.00;99853.52;180470;1266;58372;-88
2023/05/23 17:34:55;;;;;;;9.40;8.40;;;;;;;18.93;100.00;99873.04;180513;1266;44004;-88
2023/05/23 17:38:58;;;;;;;14.60;11.30;;;;;;;18.68;100.00;99875.66;180452;1266;43781;-88
2023/05/23 17:43:02;;;;;;;11.80;10.00;;;;;;;18.42;100.00;99876.38;180500;1269;43698;-86
2023/05/23 17:47:05;;;;;;;12.10;10.90;;;;;;;18.23;100.00;99883.83;180442;1266;43803;-86
2023/05/23 17:51:09;;;;;;;8.60;6.90;;;;;;;18.02;100.00;99894.91;180687;1264;59579;-87
2023/05/23 17:55:12;;;;;;;12.30;9.40;;;;;;;17.86;100.00;99892.86;180483;1267;43989;-87
2023/05/23 18:52:22;;;;;;;22.20;19.90;;;;;;;17.97;100.00;99939.86;181167;1265;43713;-67
2023/05/23 18:57:16;;;;;;;23.20;20.30;;;;;;;18.01;100.00;99944.57;181101;1265;43804;-68
2023/05/23 19:01:19;;;;;;;21.30;19.10;;;;;;;18.07;100.00;99951.73;181086;1265;44162;-68
2023/05/23 19:05:23;;;;;;;19.80;17.50;;;;;;;18.14;100.00;99951.73;181104;1265;60076;-69
2023/05/23 19:09:26;;;;;;;29.50;18.90;;;;;;;18.09;100.00;99959.28;181090;1265;43806;-69
2023/05/23 19:13:46;;;;;;;21.80;19.30;;;;;;;18.04;100.00;99964.16;181040;1265;43823;-69
2023/05/23 19:17:49;;;;;;;19.50;17.60;;;;;;;17.92;100.00;99967.64;180984;1266;43102;-68
2023/05/23 19:21:57;;;;;;;21.70;19.40;;;;;;;17.76;100.00;99971.14;181074;1265;43808;-70
2023/05/23 19:26:00;;;;;;;32.00;21.30;;;;;;;17.69;100.00;99970.20;181094;1265;59138;-69
2023/05/23 19:30:05;;;;;;;23.60;19.50;;;;;;;17.59;100.00;99972.28;181057;1266;43103;-68
2023/05/23 19:34:08;;;;;;;21.90;19.60;;;;;;;17.52;100.00;99970.66;181007;1267;43152;-68
2023/05/23 19:38:11;;;;;;;20.80;17.90;;;;;;;17.50;100.00;99970.40;181093;1265;43713;-69
2023/05/23 19:43:06;;;;;;;23.20;19.40;;;;;;;17.40;100.00;99971.87;181028;1265;43654;-68
2023/05/23 19:47:10;;;;;;;32.80;21.70;;;;;;;17.15;100.00;99973.35;180974;1266;58534;-68
2023/05/23 19:51:13;;;;;;;31.50;23.90;;;;;;;17.11;100.00;99976.80;181087;1264;43197;-69
2023/05/23 19:55:17;;;;;;;26.80;21.80;;;;;;;17.14;100.00;99981.52;181096;1265;43978;-69
2023/05/23 19:59:20;;;;;;;22.10;19.70;;;;;;;17.21;100.00;99984.27;181062;1265;43765;-68
2023/05/23 20:03:50;;;;;;;21.60;19.00;;;;;;;17.07;100.00;99983.02;181090;1265;43059;-68
2023/05/23 20:07:53;;;;;;;29.90;24.40;;;;;;;16.95;100.00;99985.91;181044;1265;58057;-68
2023/05/23 20:11:56;;;;;;;29.80;25.50;;;;;;;16.99;100.00;99989.98;181036;1265;43794;-68
2023/05/23 20:15:59;;;;;;;26.50;19.50;;;;;;;16.99;100.00;99991.02;181090;1267;43612;-67
2023/05/23 20:20:07;;;;;;;22.90;20.40;;;;;;;17.02;100.00;99993.84;180948;1265;43858;-67